sensor_id;sensor_type;location;lat;lon;timestamp;pressure;altitude;pressure_sealevel;temperature;humidity
79370;BME280;68835;53.096;17.932;2023-08-17T00:00:09;101331.92;;;19.37;68.27
79370;BME280;68835;53.096;17.932;2023-08-17T00:02:58;101333.02;;;19.35;67.97
79370;BME280;68835;53.096;17.932;2023-08-17T00:05:25;101327.92;;;19.31;67.40
79370;BME280;68835;53.096;17.932;2023-08-17T00:07:53;101330.81;;;19.29;66.97
79370;BME280;68835;53.096;17.932;2023-08-17T00:10:20;101334.05;;;19.25;66.55
79370;BME280;68835;53.096;17.932;2023-08-17T00:12:48;101331.27;;;19.22;66.32
79370;BME280;68835;53.096;17.932;2023-08-17T00:15:15;101334.89;;;19.19;66.13
79370;BME280;68835;53.096;17.932;2023-08-17T00:17:42;101338.08;;;19.18;65.78
79370;BME280;68835;53.096;17.932;2023-08-17T00:20:10;101337.56;;;19.18;65.42
79370;BME280;68835;53.096;17.932;2023-08-17T00:22:37;101346.10;;;19.16;65.30
79370;BME280;68835;53.096;17.932;2023-08-17T00:25:06;101350.95;;;19.13;64.81
79370;BME280;68835;53.096;17.932;2023-08-17T00:27:33;101350.08;;;19.11;64.72
79370;BME280;68835;53.096;17.932;2023-08-17T00:30:01;101344.80;;;19.09;64.25
79370;BME280;68835;53.096;17.932;2023-08-17T00:32:28;101337.40;;;19.06;64.28
79370;BME280;68835;53.096;17.932;2023-08-17T00:34:55;101333.00;;;19.03;64.25
79370;BME280;68835;53.096;17.932;2023-08-17T00:37:22;101338.58;;;18.98;63.69
79370;BME280;68835;53.096;17.932;2023-08-17T00:39:49;101342.15;;;18.96;63.56
79370;BME280;68835;53.096;17.932;2023-08-17T00:42:17;101341.30;;;18.94;63.59
79370;BME280;68835;53.096;17.932;2023-08-17T00:44:44;101339.36;;;18.93;63.53
79370;BME280;68835;53.096;17.932;2023-08-17T00:47:11;101337.98;;;18.91;62.92
79370;BME280;68835;53.096;17.932;2023-08-17T00:49:38;101332.34;;;18.88;63.03
79370;BME280;68835;53.096;17.932;2023-08-17T00:52:05;101328.67;;;18.85;62.97
79370;BME280;68835;53.096;17.932;2023-08-17T00:54:32;101327.65;;;18.81;62.84
79370;BME280;68835;53.096;17.932;2023-08-17T00:57:00;101323.45;;;18.78;62.90
79370;BME280;68835;53.096;17.932;2023-08-17T00:59:28;101325.80;;;18.75;62.79
79370;BME280;68835;53.096;17.932;2023-08-17T01:01:56;101326.66;;;18.76;62.81
79370;BME280;68835;53.096;17.932;2023-08-17T01:04:23;101332.15;;;18.76;62.79
79370;BME280;68835;53.096;17.932;2023-08-17T01:06:50;101334.49;;;18.75;62.54
79370;BME280;68835;53.096;17.932;2023-08-17T01:09:18;101338.23;;;18.73;62.58
79370;BME280;68835;53.096;17.932;2023-08-17T01:11:54;101340.56;;;18.72;62.66
79370;BME280;68835;53.096;17.932;2023-08-17T01:14:37;101336.65;;;18.70;62.77
79370;BME280;68835;53.096;17.932;2023-08-17T01:17:12;101339.49;;;18.69;62.78
79370;BME280;68835;53.096;17.932;2023-08-17T01:19:44;101337.41;;;18.65;62.40
79370;BME280;68835;53.096;17.932;2023-08-17T01:22:14;101335.86;;;18.63;62.73
79370;BME280;68835;53.096;17.932;2023-08-17T01:24:45;101341.74;;;18.61;62.66
79370;BME280;68835;53.096;17.932;2023-08-17T01:27:12;101341.42;;;18.58;62.88
79370;BME280;68835;53.096;17.932;2023-08-17T01:29:39;101343.93;;;18.55;62.85
79370;BME280;68835;53.096;17.932;2023-08-17T01:32:23;101345.21;;;18.53;63.12
79370;BME280;68835;53.096;17.932;2023-08-17T01:34:57;101346.30;;;18.50;63.07
79370;BME280;68835;53.096;17.932;2023-08-17T01:37:28;101350.92;;;18.50;62.87
79370;BME280;68835;53.096;17.932;2023-08-17T01:39:57;101351.11;;;18.49;63.03
79370;BME280;68835;53.096;17.932;2023-08-17T01:42:25;101346.35;;;18.46;63.12
79370;BME280;68835;53.096;17.932;2023-08-17T01:44:55;101346.77;;;18.43;63.26
79370;BME280;68835;53.096;17.932;2023-08-17T01:47:23;101343.59;;;18.41;63.52
79370;BME280;68835;53.096;17.932;2023-08-17T01:49:50;101335.98;;;18.40;63.44
79370;BME280;68835;53.096;17.932;2023-08-17T01:52:17;101333.04;;;18.35;63.55
79370;BME280;68835;53.096;17.932;2023-08-17T01:54:44;101333.61;;;18.31;63.48
79370;BME280;68835;53.096;17.932;2023-08-17T01:57:13;101332.59;;;18.28;63.47
79370;BME280;68835;53.096;17.932;2023-08-17T01:59:41;101328.36;;;18.26;63.46
79370;BME280;68835;53.096;17.932;2023-08-17T02:02:08;101316.70;;;18.24;63.61
79370;BME280;68835;53.096;17.932;2023-08-17T02:04:36;101317.45;;;18.22;63.91
79370;BME280;68835;53.096;17.932;2023-08-17T02:07:03;101319.21;;;18.22;63.90
79370;BME280;68835;53.096;17.932;2023-08-17T02:09:30;101325.08;;;18.21;63.79
79370;BME280;68835;53.096;17.932;2023-08-17T02:11:58;101326.64;;;18.22;63.56
79370;BME280;68835;53.096;17.932;2023-08-17T02:14:25;101327.34;;;18.22;63.78
79370;BME280;68835;53.096;17.932;2023-08-17T02:16:53;101319.58;;;18.21;63.98
79370;BME280;68835;53.096;17.932;2023-08-17T02:19:20;101320.65;;;18.20;64.17
79370;BME280;68835;53.096;17.932;2023-08-17T02:21:48;101324.89;;;18.21;64.24
79370;BME280;68835;53.096;17.932;2023-08-17T02:24:15;101330.55;;;18.22;64.22
79370;BME280;68835;53.096;17.932;2023-08-17T02:26:42;101327.91;;;18.21;64.16
79370;BME280;68835;53.096;17.932;2023-08-17T02:29:09;101332.52;;;18.21;64.24
79370;BME280;68835;53.096;17.932;2023-08-17T02:31:37;101326.83;;;18.21;64.24
79370;BME280;68835;53.096;17.932;2023-08-17T02:34:04;101325.80;;;18.18;64.22
79370;BME280;68835;53.096;17.932;2023-08-17T02:36:32;101320.14;;;18.18;64.32
79370;BME280;68835;53.096;17.932;2023-08-17T02:38:59;101320.98;;;18.22;64.17
79370;BME280;68835;53.096;17.932;2023-08-17T02:41:27;101320.77;;;18.25;64.23
79370;BME280;68835;53.096;17.932;2023-08-17T02:43:54;101331.53;;;18.27;64.19
79370;BME280;68835;53.096;17.932;2023-08-17T02:46:21;101333.84;;;18.28;63.98
79370;BME280;68835;53.096;17.932;2023-08-17T02:48:48;101329.40;;;18.28;64.01
79370;BME280;68835;53.096;17.932;2023-08-17T02:51:16;101325.67;;;18.29;64.02
79370;BME280;68835;53.096;17.932;2023-08-17T02:53:44;101324.77;;;18.30;63.73
79370;BME280;68835;53.096;17.932;2023-08-17T02:56:11;101322.29;;;18.30;63.68
79370;BME280;68835;53.096;17.932;2023-08-17T02:58:39;101318.58;;;18.30;63.57
79370;BME280;68835;53.096;17.932;2023-08-17T03:01:10;101311.86;;;18.29;63.65
79370;BME280;68835;53.096;17.932;2023-08-17T03:03:37;101301.55;;;18.30;63.89
79370;BME280;68835;53.096;17.932;2023-08-17T03:06:05;101301.73;;;18.31;64.33
79370;BME280;68835;53.096;17.932;2023-08-17T03:08:33;101312.68;;;18.33;64.89
79370;BME280;68835;53.096;17.932;2023-08-17T03:11:00;101324.41;;;18.30;65.23
79370;BME280;68835;53.096;17.932;2023-08-17T03:13:27;101336.54;;;18.24;65.07
79370;BME280;68835;53.096;17.932;2023-08-17T03:15:54;101334.51;;;18.16;65.98
79370;BME280;68835;53.096;17.932;2023-08-17T03:18:21;101319.19;;;18.09;66.73
79370;BME280;68835;53.096;17.932;2023-08-17T03:20:49;101307.93;;;18.01;67.50
79370;BME280;68835;53.096;17.932;2023-08-17T03:23:16;101303.08;;;17.94;67.88
79370;BME280;68835;53.096;17.932;2023-08-17T03:25:44;101300.52;;;17.85;67.79
79370;BME280;68835;53.096;17.932;2023-08-17T03:28:12;101315.46;;;17.78;67.69
79370;BME280;68835;53.096;17.932;2023-08-17T03:30:40;101320.77;;;17.76;66.67
79370;BME280;68835;53.096;17.932;2023-08-17T03:33:08;101334.77;;;17.77;66.83
79370;BME280;68835;53.096;17.932;2023-08-17T03:35:36;101339.73;;;17.73;66.64
79370;BME280;68835;53.096;17.932;2023-08-17T03:38:03;101346.48;;;17.70;66.78
79370;BME280;68835;53.096;17.932;2023-08-17T03:40:30;101357.65;;;17.68;66.67
79370;BME280;68835;53.096;17.932;2023-08-17T03:42:57;101372.33;;;17.69;66.31
79370;BME280;68835;53.096;17.932;2023-08-17T03:45:25;101396.42;;;17.68;65.68
79370;BME280;68835;53.096;17.932;2023-08-17T03:47:52;101409.33;;;17.69;65.48
79370;BME280;68835;53.096;17.932;2023-08-17T03:50:20;101421.34;;;17.72;65.32
79370;BME280;68835;53.096;17.932;2023-08-17T03:52:47;101423.10;;;17.75;65.41
79370;BME280;68835;53.096;17.932;2023-08-17T03:55:15;101425.92;;;17.77;65.48
79370;BME280;68835;53.096;17.932;2023-08-17T03:57:42;101433.84;;;17.84;65.90
79370;BME280;68835;53.096;17.932;2023-08-17T04:00:10;101420.87;;;17.88;66.48
79370;BME280;68835;53.096;17.932;2023-08-17T04:02:43;101395.77;;;17.84;67.39
79370;BME280;68835;53.096;17.932;2023-08-17T04:05:13;101385.05;;;17.74;67.64
79370;BME280;68835;53.096;17.932;2023-08-17T04:07:40;101396.58;;;17.69;69.87
79370;BME280;68835;53.096;17.932;2023-08-17T04:10:09;101406.58;;;17.60;69.90
79370;BME280;68835;53.096;17.932;2023-08-17T04:12:36;101410.52;;;17.53;69.84
79370;BME280;68835;53.096;17.932;2023-08-17T04:15:04;101414.10;;;17.50;70.26
79370;BME280;68835;53.096;17.932;2023-08-17T04:17:31;101415.55;;;17.44;71.29
79370;BME280;68835;53.096;17.932;2023-08-17T04:19:59;101412.84;;;17.28;72.11
79370;BME280;68835;53.096;17.932;2023-08-17T04:22:26;101422.32;;;17.12;72.11
79370;BME280;68835;53.096;17.932;2023-08-17T04:24:55;101425.39;;;17.00;72.45
79370;BME280;68835;53.096;17.932;2023-08-17T04:27:23;101426.67;;;16.92;72.93
79370;BME280;68835;53.096;17.932;2023-08-17T04:29:50;101429.72;;;16.84;73.49
79370;BME280;68835;53.096;17.932;2023-08-17T04:32:17;101435.05;;;16.76;73.87
79370;BME280;68835;53.096;17.932;2023-08-17T04:34:45;101450.98;;;16.73;73.86
79370;BME280;68835;53.096;17.932;2023-08-17T04:37:15;101454.13;;;16.79;74.13
79370;BME280;68835;53.096;17.932;2023-08-17T04:39:42;101451.48;;;16.79;74.48
79370;BME280;68835;53.096;17.932;2023-08-17T04:42:11;101447.60;;;16.76;75.40
79370;BME280;68835;53.096;17.932;2023-08-17T04:44:38;101456.63;;;16.77;75.35
79370;BME280;68835;53.096;17.932;2023-08-17T04:47:05;101446.70;;;16.81;75.48
79370;BME280;68835;53.096;17.932;2023-08-17T04:49:33;101433.05;;;16.86;76.19
79370;BME280;68835;53.096;17.932;2023-08-17T04:52:00;101423.89;;;16.82;76.36
79370;BME280;68835;53.096;17.932;2023-08-17T04:54:28;101424.94;;;16.85;76.11
79370;BME280;68835;53.096;17.932;2023-08-17T04:56:56;101424.71;;;16.96;76.21
79370;BME280;68835;53.096;17.932;2023-08-17T04:59:25;101420.27;;;16.99;76.19
79370;BME280;68835;53.096;17.932;2023-08-17T05:01:53;101420.10;;;16.98;75.87
79370;BME280;68835;53.096;17.932;2023-08-17T05:04:21;101418.88;;;16.97;75.74
79370;BME280;68835;53.096;17.932;2023-08-17T05:06:48;101419.39;;;16.99;76.24
79370;BME280;68835;53.096;17.932;2023-08-17T05:09:16;101415.49;;;16.98;76.32
79370;BME280;68835;53.096;17.932;2023-08-17T05:11:43;101415.66;;;16.99;76.65
79370;BME280;68835;53.096;17.932;2023-08-17T05:14:11;101416.88;;;17.04;76.89
79370;BME280;68835;53.096;17.932;2023-08-17T05:16:39;101420.39;;;17.10;76.38
79370;BME280;68835;53.096;17.932;2023-08-17T05:19:06;101416.63;;;17.17;76.44
79370;BME280;68835;53.096;17.932;2023-08-17T05:21:34;101408.24;;;17.27;76.67
79370;BME280;68835;53.096;17.932;2023-08-17T05:24:04;101400.27;;;17.29;76.15
79370;BME280;68835;53.096;17.932;2023-08-17T05:26:31;101399.04;;;17.28;76.61
79370;BME280;68835;53.096;17.932;2023-08-17T05:29:00;101399.19;;;17.33;76.24
79370;BME280;68835;53.096;17.932;2023-08-17T05:31:27;101396.13;;;17.38;76.25
79370;BME280;68835;53.096;17.932;2023-08-17T05:33:55;101393.08;;;17.45;76.45
79370;BME280;68835;53.096;17.932;2023-08-17T05:36:24;101392.30;;;17.54;76.34
79370;BME280;68835;53.096;17.932;2023-08-17T05:38:51;101391.36;;;17.60;75.96
79370;BME280;68835;53.096;17.932;2023-08-17T05:41:19;101397.17;;;17.62;75.81
79370;BME280;68835;53.096;17.932;2023-08-17T05:43:48;101404.94;;;17.65;75.88
79370;BME280;68835;53.096;17.932;2023-08-17T05:46:15;101410.20;;;17.72;75.51
79370;BME280;68835;53.096;17.932;2023-08-17T05:48:43;101408.75;;;17.75;75.22
79370;BME280;68835;53.096;17.932;2023-08-17T05:51:10;101406.05;;;17.83;75.06
79370;BME280;68835;53.096;17.932;2023-08-17T05:53:37;101401.38;;;17.91;75.24
79370;BME280;68835;53.096;17.932;2023-08-17T05:56:05;101403.23;;;18.00;75.22
79370;BME280;68835;53.096;17.932;2023-08-17T05:58:32;101416.06;;;18.09;74.98
79370;BME280;68835;53.096;17.932;2023-08-17T06:01:08;101425.61;;;18.11;74.31
79370;BME280;68835;53.096;17.932;2023-08-17T06:03:36;101435.61;;;18.03;74.18
79370;BME280;68835;53.096;17.932;2023-08-17T06:06:04;101445.91;;;18.01;74.34
79370;BME280;68835;53.096;17.932;2023-08-17T06:08:32;101446.21;;;18.05;74.22
79370;BME280;68835;53.096;17.932;2023-08-17T06:11:00;101453.46;;;18.06;74.12
79370;BME280;68835;53.096;17.932;2023-08-17T06:13:28;101455.21;;;18.09;74.41
79370;BME280;68835;53.096;17.932;2023-08-17T06:15:58;101456.99;;;18.07;73.82
79370;BME280;68835;53.096;17.932;2023-08-17T06:18:25;101460.35;;;18.07;74.01
79370;BME280;68835;53.096;17.932;2023-08-17T06:20:54;101456.77;;;18.13;74.29
79370;BME280;68835;53.096;17.932;2023-08-17T06:23:22;101451.77;;;18.18;74.24
79370;BME280;68835;53.096;17.932;2023-08-17T06:25:50;101443.75;;;18.21;74.53
79370;BME280;68835;53.096;17.932;2023-08-17T06:28:17;101441.41;;;18.25;74.40
79370;BME280;68835;53.096;17.932;2023-08-17T06:30:44;101441.36;;;18.29;74.32
79370;BME280;68835;53.096;17.932;2023-08-17T06:33:11;101440.95;;;18.34;74.20
79370;BME280;68835;53.096;17.932;2023-08-17T06:35:38;101447.45;;;18.40;74.07
79370;BME280;68835;53.096;17.932;2023-08-17T06:38:06;101453.62;;;18.42;74.04
79370;BME280;68835;53.096;17.932;2023-08-17T06:40:33;101455.30;;;18.50;73.77
79370;BME280;68835;53.096;17.932;2023-08-17T06:43:01;101456.30;;;18.56;73.53
79370;BME280;68835;53.096;17.932;2023-08-17T06:45:28;101452.98;;;18.67;73.46
79370;BME280;68835;53.096;17.932;2023-08-17T06:47:56;101444.91;;;18.77;73.23
79370;BME280;68835;53.096;17.932;2023-08-17T06:50:23;101443.61;;;18.82;72.68
79370;BME280;68835;53.096;17.932;2023-08-17T06:52:52;101444.63;;;18.86;72.81
79370;BME280;68835;53.096;17.932;2023-08-17T06:55:20;101439.33;;;18.84;72.75
79370;BME280;68835;53.096;17.932;2023-08-17T06:57:47;101441.64;;;18.85;73.12
79370;BME280;68835;53.096;17.932;2023-08-17T07:00:18;101450.78;;;18.90;72.76
79370;BME280;68835;53.096;17.932;2023-08-17T07:02:49;101453.32;;;18.99;72.57
79370;BME280;68835;53.096;17.932;2023-08-17T07:05:17;101451.13;;;19.03;72.73
79370;BME280;68835;53.096;17.932;2023-08-17T07:07:48;101450.55;;;19.07;72.79
79370;BME280;68835;53.096;17.932;2023-08-17T07:10:15;101445.38;;;19.09;72.94
79370;BME280;68835;53.096;17.932;2023-08-17T07:12:44;101446.81;;;19.07;72.46
79370;BME280;68835;53.096;17.932;2023-08-17T07:15:13;101447.66;;;18.98;72.49
79370;BME280;68835;53.096;17.932;2023-08-17T07:17:40;101452.37;;;18.90;72.31
79370;BME280;68835;53.096;17.932;2023-08-17T07:20:09;101457.14;;;18.91;72.53
79370;BME280;68835;53.096;17.932;2023-08-17T07:22:39;101459.55;;;18.97;72.07
79370;BME280;68835;53.096;17.932;2023-08-17T07:25:09;101454.50;;;19.02;72.61
79370;BME280;68835;53.096;17.932;2023-08-17T07:27:36;101454.27;;;19.07;72.25
79370;BME280;68835;53.096;17.932;2023-08-17T07:30:04;101455.02;;;19.17;72.63
79370;BME280;68835;53.096;17.932;2023-08-17T07:32:31;101455.23;;;19.27;72.17
79370;BME280;68835;53.096;17.932;2023-08-17T07:34:59;101452.24;;;19.37;72.32
79370;BME280;68835;53.096;17.932;2023-08-17T07:37:26;101444.01;;;19.42;71.42
79370;BME280;68835;53.096;17.932;2023-08-17T07:40:00;101434.69;;;19.48;71.54
79370;BME280;68835;53.096;17.932;2023-08-17T07:42:30;101432.55;;;19.60;71.68
79370;BME280;68835;53.096;17.932;2023-08-17T07:44:57;101424.77;;;19.70;71.09
79370;BME280;68835;53.096;17.932;2023-08-17T07:47:25;101427.88;;;19.75;70.72
79370;BME280;68835;53.096;17.932;2023-08-17T07:49:52;101433.83;;;19.80;70.69
79370;BME280;68835;53.096;17.932;2023-08-17T07:52:19;101439.57;;;19.87;70.46
79370;BME280;68835;53.096;17.932;2023-08-17T07:54:47;101449.98;;;19.91;69.94
79370;BME280;68835;53.096;17.932;2023-08-17T07:57:14;101455.84;;;19.91;69.97
79370;BME280;68835;53.096;17.932;2023-08-17T07:59:41;101454.15;;;19.97;70.09
79370;BME280;68835;53.096;17.932;2023-08-17T08:02:09;101453.04;;;20.09;69.98
79370;BME280;68835;53.096;17.932;2023-08-17T08:04:37;101448.67;;;20.24;69.78
79370;BME280;68835;53.096;17.932;2023-08-17T08:07:04;101457.02;;;20.43;69.73
79370;BME280;68835;53.096;17.932;2023-08-17T08:09:31;101468.66;;;20.58;69.17
79370;BME280;68835;53.096;17.932;2023-08-17T08:11:59;101480.46;;;20.73;68.87
79370;BME280;68835;53.096;17.932;2023-08-17T08:14:26;101490.27;;;20.81;68.11
79370;BME280;68835;53.096;17.932;2023-08-17T08:16:53;101492.34;;;20.75;67.55
79370;BME280;68835;53.096;17.932;2023-08-17T08:19:20;101486.16;;;20.64;67.81
79370;BME280;68835;53.096;17.932;2023-08-17T08:21:48;101468.42;;;20.70;68.16
79370;BME280;68835;53.096;17.932;2023-08-17T08:24:15;101451.64;;;20.83;68.15
79370;BME280;68835;53.096;17.932;2023-08-17T08:26:43;101444.94;;;20.88;68.09
79370;BME280;68835;53.096;17.932;2023-08-17T08:29:10;101441.40;;;20.87;68.07
79370;BME280;68835;53.096;17.932;2023-08-17T08:31:37;101439.93;;;20.82;67.66
79370;BME280;68835;53.096;17.932;2023-08-17T08:34:04;101431.46;;;20.77;67.85
79370;BME280;68835;53.096;17.932;2023-08-17T08:36:31;101422.52;;;20.79;67.80
79370;BME280;68835;53.096;17.932;2023-08-17T08:38:58;101418.12;;;20.78;67.91
79370;BME280;68835;53.096;17.932;2023-08-17T08:41:26;101418.61;;;20.80;67.46
79370;BME280;68835;53.096;17.932;2023-08-17T08:43:54;101415.54;;;20.82;67.50
79370;BME280;68835;53.096;17.932;2023-08-17T08:46:24;101410.71;;;20.83;67.51
79370;BME280;68835;53.096;17.932;2023-08-17T08:48:54;101413.11;;;20.87;67.50
79370;BME280;68835;53.096;17.932;2023-08-17T08:51:27;101425.23;;;20.95;67.15
79370;BME280;68835;53.096;17.932;2023-08-17T08:54:01;101425.37;;;21.04;67.24
79370;BME280;68835;53.096;17.932;2023-08-17T08:56:32;101421.98;;;21.12;67.11
79370;BME280;68835;53.096;17.932;2023-08-17T08:59:02;101407.95;;;21.26;66.93
79370;BME280;68835;53.096;17.932;2023-08-17T09:01:33;101405.97;;;21.43;66.33
79370;BME280;68835;53.096;17.932;2023-08-17T09:04:02;101402.25;;;21.56;66.24
79370;BME280;68835;53.096;17.932;2023-08-17T09:06:32;101396.92;;;21.77;65.99
79370;BME280;68835;53.096;17.932;2023-08-17T09:09:01;101404.44;;;22.16;65.31
79370;BME280;68835;53.096;17.932;2023-08-17T09:11:29;101408.70;;;22.43;64.73
79370;BME280;68835;53.096;17.932;2023-08-17T09:13:57;101405.15;;;22.49;64.77
79370;BME280;68835;53.096;17.932;2023-08-17T09:16:24;101403.46;;;22.51;64.58
79370;BME280;68835;53.096;17.932;2023-08-17T09:18:54;101405.23;;;22.40;64.32
79370;BME280;68835;53.096;17.932;2023-08-17T09:21:24;101404.77;;;22.25;64.48
79370;BME280;68835;53.096;17.932;2023-08-17T09:23:55;101401.48;;;22.14;64.88
79370;BME280;68835;53.096;17.932;2023-08-17T09:26:23;101408.92;;;22.02;65.00
79370;BME280;68835;53.096;17.932;2023-08-17T09:28:51;101413.55;;;21.88;64.76
79370;BME280;68835;53.096;17.932;2023-08-17T09:31:21;101402.41;;;21.78;65.19
79370;BME280;68835;53.096;17.932;2023-08-17T09:33:50;101385.63;;;21.72;65.76
79370;BME280;68835;53.096;17.932;2023-08-17T09:36:22;101366.61;;;21.64;66.89
79370;BME280;68835;53.096;17.932;2023-08-17T09:38:50;101359.18;;;21.56;67.25
79370;BME280;68835;53.096;17.932;2023-08-17T09:41:18;101357.91;;;21.49;67.58
79370;BME280;68835;53.096;17.932;2023-08-17T09:43:47;101353.88;;;21.40;68.20
79370;BME280;68835;53.096;17.932;2023-08-17T09:46:14;101332.38;;;21.38;68.75
79370;BME280;68835;53.096;17.932;2023-08-17T09:48:45;101314.05;;;21.38;69.17
79370;BME280;68835;53.096;17.932;2023-08-17T09:51:15;101313.92;;;21.36;69.85
79370;BME280;68835;53.096;17.932;2023-08-17T09:53:43;101317.36;;;21.40;69.75
79370;BME280;68835;53.096;17.932;2023-08-17T09:56:10;101314.33;;;21.54;69.93
79370;BME280;68835;53.096;17.932;2023-08-17T09:58:39;101309.94;;;21.72;69.84
79370;BME280;68835;53.096;17.932;2023-08-17T10:01:09;101296.10;;;21.95;70.22
79370;BME280;68835;53.096;17.932;2023-08-17T10:03:39;101297.97;;;22.24;69.69
79370;BME280;68835;53.096;17.932;2023-08-17T10:06:12;101296.92;;;22.48;69.56
79370;BME280;68835;53.096;17.932;2023-08-17T10:08:43;101298.92;;;22.63;69.26
79370;BME280;68835;53.096;17.932;2023-08-17T10:11:12;101302.44;;;22.77;69.35
79370;BME280;68835;53.096;17.932;2023-08-17T10:13:52;101300.70;;;23.03;69.15
79370;BME280;68835;53.096;17.932;2023-08-17T10:16:29;101304.02;;;23.33;68.57
79370;BME280;68835;53.096;17.932;2023-08-17T10:21:40;101306.29;;;23.70;67.34
79370;BME280;68835;53.096;17.932;2023-08-17T10:24:11;101306.85;;;24.38;66.67
79370;BME280;68835;53.096;17.932;2023-08-17T10:26:39;101308.67;;;25.01;65.41
79370;BME280;68835;53.096;17.932;2023-08-17T10:29:09;101304.50;;;25.58;64.54
79370;BME280;68835;53.096;17.932;2023-08-17T10:31:38;101303.12;;;26.05;60.46
79370;BME280;68835;53.096;17.932;2023-08-17T10:34:06;101307.19;;;26.49;60.16
79370;BME280;68835;53.096;17.932;2023-08-17T10:36:34;101312.96;;;26.53;58.76
79370;BME280;68835;53.096;17.932;2023-08-17T10:39:23;101309.95;;;26.63;57.01
79370;BME280;68835;53.096;17.932;2023-08-17T10:41:52;101312.58;;;26.83;55.57
79370;BME280;68835;53.096;17.932;2023-08-17T10:47:24;101315.77;;;27.02;55.09
79370;BME280;68835;53.096;17.932;2023-08-17T10:52:31;101320.27;;;27.24;54.17
79370;BME280;68835;53.096;17.932;2023-08-17T10:55:17;101315.12;;;27.40;53.93
79370;BME280;68835;53.096;17.932;2023-08-17T10:57:51;101317.68;;;27.43;53.13
79370;BME280;68835;53.096;17.932;2023-08-17T11:00:22;101313.31;;;27.23;53.77
79370;BME280;68835;53.096;17.932;2023-08-17T11:02:59;101305.94;;;27.31;53.98
79370;BME280;68835;53.096;17.932;2023-08-17T11:05:49;101305.08;;;27.82;52.71
79370;BME280;68835;53.096;17.932;2023-08-17T11:08:32;101304.81;;;28.37;50.92
79370;BME280;68835;53.096;17.932;2023-08-17T11:13:36;101302.14;;;29.46;49.87
79370;BME280;68835;53.096;17.932;2023-08-17T11:16:05;101299.98;;;29.81;48.87
79370;BME280;68835;53.096;17.932;2023-08-17T11:18:35;101302.50;;;30.14;48.38
79370;BME280;68835;53.096;17.932;2023-08-17T11:21:05;101307.29;;;30.44;45.77
79370;BME280;68835;53.096;17.932;2023-08-17T11:23:35;101307.96;;;31.00;45.47
79370;BME280;68835;53.096;17.932;2023-08-17T11:26:03;101306.66;;;31.56;43.90
79370;BME280;68835;53.096;17.932;2023-08-17T11:28:32;101309.02;;;32.08;43.97
79370;BME280;68835;53.096;17.932;2023-08-17T11:31:05;101318.27;;;32.66;42.61
79370;BME280;68835;53.096;17.932;2023-08-17T11:33:36;101322.84;;;33.21;41.16
79370;BME280;68835;53.096;17.932;2023-08-17T11:36:06;101324.64;;;33.92;40.41
79370;BME280;68835;53.096;17.932;2023-08-17T11:38:39;101316.39;;;34.43;39.22
79370;BME280;68835;53.096;17.932;2023-08-17T11:41:07;101314.98;;;34.91;38.31
79370;BME280;68835;53.096;17.932;2023-08-17T11:43:38;101314.02;;;35.32;37.37
79370;BME280;68835;53.096;17.932;2023-08-17T11:46:08;101313.86;;;35.72;36.89
79370;BME280;68835;53.096;17.932;2023-08-17T11:48:36;101309.52;;;35.91;35.98
79370;BME280;68835;53.096;17.932;2023-08-17T11:51:04;101302.20;;;35.95;35.59
79370;BME280;68835;53.096;17.932;2023-08-17T11:53:39;101301.23;;;36.09;34.83
79370;BME280;68835;53.096;17.932;2023-08-17T11:56:06;101300.63;;;36.25;34.23
79370;BME280;68835;53.096;17.932;2023-08-17T11:58:45;101304.28;;;36.52;33.76
79370;BME280;68835;53.096;17.932;2023-08-17T12:01:13;101305.81;;;36.65;32.92
79370;BME280;68835;53.096;17.932;2023-08-17T12:03:42;101310.59;;;36.79;33.27
79370;BME280;68835;53.096;17.932;2023-08-17T12:06:11;101315.58;;;36.98;32.80
79370;BME280;68835;53.096;17.932;2023-08-17T12:08:43;101313.40;;;37.02;32.84
79370;BME280;68835;53.096;17.932;2023-08-17T12:11:10;101312.49;;;37.07;32.33
79370;BME280;68835;53.096;17.932;2023-08-17T12:13:38;101311.38;;;36.82;32.52
79370;BME280;68835;53.096;17.932;2023-08-17T12:16:05;101313.88;;;36.50;33.00
79370;BME280;68835;53.096;17.932;2023-08-17T12:18:35;101313.86;;;36.27;33.01
79370;BME280;68835;53.096;17.932;2023-08-17T12:21:03;101316.42;;;35.91;33.19
79370;BME280;68835;53.096;17.932;2023-08-17T12:23:32;101312.91;;;35.65;33.44
79370;BME280;68835;53.096;17.932;2023-08-17T12:26:00;101314.30;;;35.27;33.79
79370;BME280;68835;53.096;17.932;2023-08-17T12:28:27;101310.57;;;35.13;33.64
79370;BME280;68835;53.096;17.932;2023-08-17T12:31:02;101303.06;;;35.46;33.59
79370;BME280;68835;53.096;17.932;2023-08-17T12:33:29;101298.16;;;35.85;33.21
79370;BME280;68835;53.096;17.932;2023-08-17T12:35:57;101302.14;;;36.33;34.02
79370;BME280;68835;53.096;17.932;2023-08-17T12:38:24;101305.16;;;36.84;32.85
79370;BME280;68835;53.096;17.932;2023-08-17T12:40:52;101309.57;;;37.37;32.10
79370;BME280;68835;53.096;17.932;2023-08-17T12:43:20;101308.65;;;37.70;31.18
79370;BME280;68835;53.096;17.932;2023-08-17T12:45:48;101309.02;;;37.83;31.25
79370;BME280;68835;53.096;17.932;2023-08-17T12:48:15;101307.40;;;38.02;30.72
79370;BME280;68835;53.096;17.932;2023-08-17T12:50:42;101301.91;;;38.26;30.33
79370;BME280;68835;53.096;17.932;2023-08-17T12:53:10;101300.95;;;38.17;29.54
79370;BME280;68835;53.096;17.932;2023-08-17T12:55:38;101302.89;;;38.19;30.51
79370;BME280;68835;53.096;17.932;2023-08-17T12:58:08;101298.38;;;38.42;29.66